• Join FlightAware (Why Join?)
  • Login
  • US Flag 
04:42PM EDT


 

Airport Tracker/Info


-or-


 

Live Flight TrackerFlight Track Log ✈ ASQ6151 ✈ 02-Jun-2013 ✈ KORD - KSTL

Flight Track Log - Related Links

Times and Time Zones

All times are in EDT time to prevent confusion due to time zone crossing. See the ASQ6151 flight status page for this flight to view local times or setup timezone preferences in your user account.

Time Position Orientation Groundspeed Altitude Reporting Facility
EDT Latitude Longitude Course Direction KTS MPH feet Rate Location/Type
09:43AM 42.0000 -87.8333 194° South 218 251 3,000  Level Chicago TRACON
09:44AM 41.9219 -87.8233 175° South 247 284 4,700 1,800 Climbing Chicago Center
09:45AM 41.7236 -88.1138 192° South  Level Estimated
09:45AM 41.8608 -87.8625 206° Southwest 256 295 6,800  Level Chicago Center
09:46AM 41.6375 -88.1825 189° South  Level Estimated
09:46AM 41.7989 -87.9117 211° Southwest 259 298 9,000  Level Chicago Center
09:47AM 41.5502 -88.1167 151° Southeast  Level FlightAware Approximate
09:47AM 41.7242 -87.9344 193° South 272 313 10,900  Level Chicago Center
09:48AM 41.4655 -88.1882 194° South  Level Estimated
09:48AM 41.6450 -87.9592 193° South 289 333 12,600  Level Chicago Center
09:49AM 41.5397 -87.9906 193° South 320 368 13,800 1,020 Climbing Chicago Center
09:50AM 41.4411 -88.0206 193° South 348 400 14,800 960 Climbing Chicago Center
09:51AM 41.3381 -88.0533 193° South 360 414 15,800 900 Climbing Chicago Center
09:52AM 41.2367 -88.0853 193° South 370 426 16,700 840 Climbing Chicago Center
09:53AM 41.1294 -88.0978 185° South 388 447 17,600 780 Climbing Chicago Center
09:54AM 41.0228 -88.1111 185° South 388 447 18,400 720 Climbing Chicago Center
09:55AM 40.9192 -88.1464 194° South 390 449 19,200 780 Climbing Chicago Center
09:56AM 40.8225 -88.2022 204° Southwest 384 442 20,100 900 Climbing Chicago Center
09:57AM 40.7022 -88.2692 203° Southwest 388 447 21,100 840 Climbing Chicago Center
09:58AM 40.6033 -88.3269 204° Southwest 391 450 21,900 780 Climbing Chicago Center
09:59AM 40.5031 -88.3831 203° Southwest 392 451 22,700 780 Climbing Chicago Center
10:01AM 40.4039 -88.4383 203° Southwest 391 450 23,600 600 Climbing Chicago Center
10:02AM 40.3042 -88.4947 203° Southwest 391 450 24,000 180 Climbing Chicago Center
10:03AM 40.1947 -88.5553 203° Southwest 403 464 24,000  Level Chicago Center
10:04AM 40.0881 -88.6161 204° Southwest 414 476 24,000  Level Chicago Center
10:05AM 39.9889 -88.6714 203° Southwest 388 447 24,000  Level Chicago Center
10:06AM 39.8875 -88.6853 186° South 369 425 24,000  Level Chicago Center
10:07AM 39.7817 -88.7078 189° South 374 430 24,000  Level Kansas City Center
10:08AM 39.6772 -88.7272 188° South 376 433 24,000  Level Kansas City Center
10:09AM 39.5878 -88.7919 209° Southwest 371 427 24,000  Level Kansas City Center
10:10AM 39.4981 -88.8594 210° Southwest 372 428 24,000  Level Kansas City Center
10:11AM 39.4031 -88.9317 210° Southwest 377 434 24,000 -360 Level Kansas City Center
10:12AM 39.3097 -89.0017 210° Southwest 384 442 23,300 -1,500 Descending Kansas City Center
10:13AM 39.2178 -89.0683 209° Southwest 382 440 20,900 -2,640 Descending Kansas City Center
10:14AM 39.1178 -89.1417 210° Southwest 361 415 18,000 -2,640 Descending Kansas City Center
10:15AM 39.0717 -89.2492 241° Southwest 347 399 15,500 -2,520 Descending Kansas City Center
10:16AM 39.0475 -89.3647 255° West 336 387 12,900 -2,400 Descending Kansas City Center
10:17AM 39.0211 -89.4836 254° West 323 372 10,600 -1,620 Descending Kansas City Center
10:18AM 38.9989 -89.5792 253° West 284 327 9,600 -1,020 Descending Kansas City Center
10:19AM 38.9489 -89.6450 226° Southwest 267 307 8,500 -1,260 Descending Kansas City Center
10:20AM 38.8903 -89.6967 214° Southwest 265 305 7,100 -780 Descending Kansas City Center
10:21AM 38.8308 -89.7542 217° Southwest 267 307 7,000 -60 Descending Kansas City Center
10:22AM 38.7703 -89.8111 216° Southwest 268 308 7,000  Level Kansas City Center
10:23AM 38.7125 -89.8667 217° Southwest 264 304 7,000 -300 Level Kansas City Center
10:24AM 38.6464 -89.9208 213° Southwest 246 283 6,400 -780 Descending Kansas City Center
10:25AM 38.5925 -89.9536 205° Southwest 227 261 5,500 -780 Descending Kansas City Center
10:26AM 38.5686 -89.9947 233° Southwest 196 226 4,900 -300 Descending Kansas City Center
10:27AM 38.5925 -90.0456 301° West 178 205 5,000  Climbing Kansas City Center
10:28AM 38.6181 -90.0964 303° West 173 199 4,900 -480 Descending Kansas City Center
10:29AM 38.6431 -90.1472 302° West 171 197 4,100 -780 Descending Kansas City Center